Time;durP1;ratioP1;P1;durP2;ratioP2;P2;SDS_P1;SDS_P2;PMS_P1;PMS_P2;Temp;Humidity;BMP_temperature;BMP_pressure;BME280_temperature;BME280_humidity;BME280_pressure;Samples;Min_cycle;Max_cycle;Signal;HPM_P1;HPM_P2
2021/12/23 00:00:57;;;;;;;;;2.00;2.00;;;;;0.25;66.63;101234.56;5043419;28;45641;-81
2021/12/23 00:03:24;;;;;;;;;5.25;2.00;;;;;0.56;66.56;101301.22;5042913;28;45247;-82
2021/12/23 00:05:49;;;;;;;;;5.00;2.00;;;;;0.53;66.93;101285.66;5041550;28;45286;-82
2021/12/23 00:08:15;;;;;;;;;2.50;1.75;;;;;0.68;66.29;101308.75;5058385;28;45339;-81
2021/12/23 00:10:41;;;;;;;;;1.75;1.75;;;;;0.06;66.34;101207.00;5042890;28;45692;-81
2021/12/23 00:13:07;;;;;;;;;2.00;1.75;;;;;0.91;66.27;101355.31;5043173;28;45503;-81
2021/12/23 00:18:30;;;;;;;;;2.00;2.00;;;;;0.50;66.67;101281.25;5043397;28;45322;-81
2021/12/23 00:23:43;;;;;;;;;1.50;1.00;;;;;0.21;66.79;101212.16;5031177;28;45506;-81
2021/12/23 00:26:09;;;;;;;;;3.00;1.25;;;;;0.41;67.57;101245.72;5043080;28;45279;-82
2021/12/23 00:28:34;;;;;;;;;2.00;2.00;;;;;0.50;67.02;101279.56;5043388;28;45282;-82
2021/12/23 00:31:01;;;;;;;;;5.00;2.00;;;;;0.12;67.02;101221.84;5042758;28;45350;-81
2021/12/23 00:33:27;;;;;;;;;2.00;1.25;;;;;0.74;67.43;101316.81;5059904;28;45432;-81
2021/12/23 00:35:53;;;;;;;;;2.00;2.00;;;;;0.27;67.66;101241.50;5063078;28;45510;-82
2021/12/23 00:38:26;;;;;;;;;11.75;2.75;;;;;0.53;67.37;101277.97;5062839;28;45428;-81
2021/12/23 00:40:52;;;;;;;;;3.00;1.00;;;;;-0.15;67.69;101166.53;5062642;28;45464;-82
2021/12/23 00:43:18;;;;;;;;;1.25;1.25;;;;;0.75;67.35;101306.63;5061100;28;45395;-81
2021/12/23 00:45:44;;;;;;;;;3.50;2.50;;;;;0.55;67.15;101264.47;5062870;28;45340;-81
2021/12/23 00:48:09;;;;;;;;;2.75;2.00;;;;;0.35;67.49;101238.59;5062924;28;45347;-81
2021/12/23 00:50:35;;;;;;;;;0.75;0.75;;;;;0.11;67.94;101194.47;5063010;28;45423;-81
2021/12/23 00:53:05;;;;;;;;;1.50;1.50;;;;;0.73;68.03;101300.53;5062485;28;45384;-83
2021/12/23 00:55:30;;;;;;;;;6.25;4.50;;;;;0.73;68.36;101303.09;5062526;28;45300;-83
2021/12/23 00:57:56;;;;;;;;;3.50;1.50;;;;;0.57;67.83;101273.13;5062749;28;45526;-83
2021/12/23 01:00:21;;;;;;;;;2.50;1.00;;;;;-0.13;67.78;101146.16;5062522;28;45887;-80
2021/12/23 01:02:48;;;;;;;;;2.00;2.00;;;;;0.33;67.73;101239.25;5062594;28;45271;-82
2021/12/23 01:05:18;;;;;;;;;0.75;0.75;;;;;0.04;68.32;101171.88;5062567;28;45472;-82
2021/12/23 01:07:43;;;;;;;;;3.50;2.00;;;;;0.09;67.76;101198.66;5061275;28;45604;-80
2021/12/23 01:10:10;;;;;;;;;4.50;2.25;;;;;0.40;67.79;101250.78;5061969;28;45489;-80
2021/12/23 01:12:47;;;;;;;;;5.50;2.25;;;;;0.16;68.37;101228.03;5062452;28;45267;-80
2021/12/23 01:15:27;;;;;;;;;5.50;2.75;;;;;-0.25;67.91;101151.44;5064861;28;45345;-81
2021/12/23 01:18:06;;;;;;;;;2.00;1.00;;;;;0.56;67.96;101280.72;5064710;28;45188;-80
2021/12/23 01:20:35;;;;;;;;;4.50;2.00;;;;;0.61;67.92;101282.75;5060896;28;48078;-80
2021/12/23 01:23:12;;;;;;;;;3.50;3.50;;;;;0.37;68.39;101244.66;5062099;28;45496;-80
2021/12/23 01:25:39;;;;;;;;;9.50;5.75;;;;;-0.19;68.71;101156.03;5060590;28;45257;-80
2021/12/23 01:28:07;;;;;;;;;2.75;2.75;;;;;0.03;68.33;101180.34;5062697;28;45168;-80
2021/12/23 01:30:37;;;;;;;;;9.75;6.75;;;;;0.56;68.88;101267.91;5062048;28;46317;-80
2021/12/23 01:33:04;;;;;;;;;1.00;0.25;;;;;0.56;69.05;101255.09;5049435;28;45282;-79
2021/12/23 01:35:30;;;;;;;;;0.75;0.75;;;;;-0.04;69.04;101162.06;5042218;28;45182;-80
2021/12/23 01:37:55;;;;;;;;;4.00;2.00;;;;;0.35;68.48;101228.34;5043524;28;45203;-81
2021/12/23 01:40:24;;;;;;;;;5.00;3.25;;;;;0.31;68.73;101228.91;5042685;28;46617;-82
2021/12/23 01:42:50;;;;;;;;;1.50;1.00;;;;;-0.40;68.61;101102.78;5042387;28;45271;-80
2021/12/23 01:45:21;;;;;;;;;2.75;2.50;;;;;-0.10;68.59;101150.59;5041815;28;45366;-81
2021/12/23 01:47:47;;;;;;;;;2.00;2.00;;;;;0.02;68.92;101182.00;5042043;28;45358;-81
2021/12/23 01:50:15;;;;;;;;;5.75;4.50;;;;;0.57;68.70;101255.19;5041832;28;45390;-81
2021/12/23 01:52:41;;;;;;;;;5.50;3.00;;;;;0.59;69.42;101255.28;5041640;28;45302;-81
2021/12/23 01:55:09;;;;;;;;;9.50;5.25;;;;;-0.45;69.02;101065.81;5041813;28;45295;-81
2021/12/23 01:57:35;;;;;;;;;3.00;1.00;;;;;0.53;69.48;101229.28;5041947;28;45442;-81
2021/12/23 02:00:06;;;;;;;;;2.00;2.00;;;;;0.64;68.68;101256.41;5049721;28;46190;-81
2021/12/23 02:02:32;;;;;;;;;0.75;0.75;;;;;0.67;69.43;101236.09;5054659;28;45286;-81
2021/12/23 02:04:58;;;;;;;;;0.75;0.75;;;;;0.43;69.78;101194.59;5057138;28;45270;-81
2021/12/23 02:07:23;;;;;;;;;3.00;3.00;;;;;0.20;69.48;101150.59;5059656;28;44873;-83
2021/12/23 02:09:49;;;;;;;;;2.00;1.25;;;;;-0.10;69.25;101091.72;5047061;28;46440;-82
2021/12/23 02:12:15;;;;;;;;;2.50;2.50;;;;;0.25;68.96;101149.19;5045804;28;45289;-82
2021/12/23 02:14:41;;;;;;;;;2.00;2.00;;;;;0.50;68.97;101200.13;5045432;28;44724;-82
2021/12/23 02:17:06;;;;;;;;;2.00;2.00;;;;;0.72;69.42;101224.44;5043612;28;45426;-81
2021/12/23 02:19:32;;;;;;;;;5.00;1.75;;;;;-0.04;68.92;101095.50;5045727;28;45453;-81
2021/12/23 02:21:58;;;;;;;;;8.00;3.00;;;;;0.82;69.37;101236.09;5045140;28;45176;-82
2021/12/23 02:24:23;;;;;;;;;3.00;0.00;;;;;0.09;68.77;101115.00;5044708;28;45347;-82
2021/12/23 02:26:48;;;;;;;;;6.25;3.00;;;;;0.68;69.16;101198.53;5045278;28;45388;-82
2021/12/23 02:29:14;;;;;;;;;2.00;2.00;;;;;0.79;69.06;101219.66;5044661;28;45342;-81
2021/12/23 02:31:39;;;;;;;;;2.50;2.00;;;;;0.25;68.82;101121.88;5047029;28;45390;-81
2021/12/23 02:34:05;;;;;;;;;1.75;1.50;;;;;0.36;69.61;101139.53;5063663;28;45373;-81
2021/12/23 02:36:30;;;;;;;;;2.50;2.00;;;;;0.96;69.06;101225.72;5065197;28;45563;-82
2021/12/23 02:39:00;;;;;;;;;2.25;2.25;;;;;0.83;68.61;101206.22;5063030;28;48065;-81
2021/12/23 02:41:25;;;;;;;;;3.50;3.00;;;;;0.44;69.06;101124.63;5064683;28;45290;-82
2021/12/23 02:43:51;;;;;;;;;5.25;3.50;;;;;0.00;68.65;101045.38;5063368;28;45308;-81
2021/12/23 02:46:20;;;;;;;;;5.00;2.25;;;;;0.93;69.28;101213.63;5064847;28;45392;-81
2021/12/23 02:48:46;;;;;;;;;3.00;3.00;;;;;0.44;68.51;101150.25;5064514;28;45467;-81
2021/12/23 02:51:14;;;;;;;;;3.50;2.50;;;;;0.28;69.29;101103.28;5064697;28;45309;-81
2021/12/23 02:53:41;;;;;;;;;2.25;2.00;;;;;0.75;69.22;101172.47;5064443;28;45253;-81
2021/12/23 02:56:09;;;;;;;;;4.00;3.25;;;;;0.70;69.25;101159.38;5064717;28;45333;-81
2021/12/23 02:58:35;;;;;;;;;5.75;4.50;;;;;0.40;68.47;101122.69;5064354;28;45486;-81
2021/12/23 03:01:05;;;;;;;;;2.00;1.00;;;;;0.74;69.18;101174.13;5064269;28;45337;-82
2021/12/23 03:03:30;;;;;;;;;2.75;1.75;;;;;0.79;69.23;101187.22;5064435;28;45178;-82
2021/12/23 03:05:57;;;;;;;;;3.00;1.50;;;;;0.93;69.03;101198.25;5064329;28;45337;-82
2021/12/23 03:08:27;;;;;;;;;0.75;0.75;;;;;0.80;68.83;101176.19;5063993;28;46362;-82
2021/12/23 03:10:53;;;;;;;;;5.25;1.50;;;;;0.42;68.46;101121.06;5063868;28;45314;-82
2021/12/23 03:13:18;;;;;;;;;3.50;2.00;;;;;0.48;69.44;101121.44;5064225;28;45613;-82
2021/12/23 03:15:43;;;;;;;;;3.50;3.00;;;;;0.18;68.97;101077.94;5064617;28;45434;-82
2021/12/23 03:18:09;;;;;;;;;2.50;1.50;;;;;0.78;69.18;101169.19;5064040;28;46212;-82
2021/12/23 03:20:34;;;;;;;;;5.75;3.50;;;;;0.35;69.09;101089.13;5064201;28;45217;-82
2021/12/23 03:22:59;;;;;;;;;5.75;2.00;;;;;0.46;68.89;101105.09;5063848;28;45272;-82
2021/12/23 03:25:25;;;;;;;;;2.00;1.75;;;;;0.02;68.75;101028.41;5064017;28;45578;-82
2021/12/23 03:27:50;;;;;;;;;2.00;2.00;;;;;0.96;68.98;101190.72;5064000;28;45449;-82
2021/12/23 03:30:16;;;;;;;;;3.00;2.00;;;;;0.47;69.21;101096.63;5062841;28;45180;-82
2021/12/23 03:32:41;;;;;;;;;4.50;2.50;;;;;0.78;68.45;101151.25;5053023;28;45431;-82
2021/12/23 03:35:07;;;;;;;;;5.00;2.00;;;;;1.00;68.37;101176.38;5043970;28;45513;-82
2021/12/23 03:37:32;;;;;;;;;1.50;1.50;;;;;0.29;69.08;101040.09;5043697;28;45593;-81
2021/12/23 03:39:58;;;;;;;;;1.00;1.00;;;;;0.49;68.84;101077.97;5042290;28;45347;-82
2021/12/23 03:42:23;;;;;;;;;3.00;3.00;;;;;0.86;68.69;101142.31;5043821;28;45404;-82
2021/12/23 03:44:49;;;;;;;;;3.50;2.25;;;;;0.35;68.68;101055.81;5043866;28;45395;-82
2021/12/23 03:47:15;;;;;;;;;5.00;2.25;;;;;0.80;69.33;101116.34;5043455;28;45398;-82
2021/12/23 03:49:40;;;;;;;;;3.25;2.00;;;;;0.65;68.57;101091.63;5043478;28;45330;-82
2021/12/23 03:52:06;;;;;;;;;8.50;2.00;;;;;1.00;68.96;101158.44;5043459;28;45686;-82
2021/12/23 03:54:31;;;;;;;;;6.00;5.50;;;;;0.39;68.37;101041.53;5043632;28;45288;-82
2021/12/23 03:56:56;;;;;;;;;2.00;2.00;;;;;0.82;69.00;101131.00;5043309;28;45291;-82
2021/12/23 03:59:22;;;;;;;;;3.00;1.25;;;;;0.83;69.53;101131.88;5043458;28;45298;-82
2021/12/23 04:01:47;;;;;;;;;3.25;2.25;;;;;0.75;68.97;101108.38;5043635;28;45757;-82
2021/12/23 04:04:13;;;;;;;;;2.75;2.25;;;;;0.86;68.84;101122.66;5043624;28;45215;-82
2021/12/23 04:06:38;;;;;;;;;2.00;2.00;;;;;0.82;68.87;101117.28;5043046;28;45286;-82
2021/12/23 04:09:04;;;;;;;;;5.75;3.00;;;;;0.10;68.95;100975.09;5042874;28;45198;-82
2021/12/23 04:11:30;;;;;;;;;3.00;2.00;;;;;0.66;69.36;101065.19;5043465;28;45247;-82
2021/12/23 04:13:55;;;;;;;;;7.25;2.25;;;;;0.74;69.08;101074.16;5043497;28;45264;-82
2021/12/23 04:16:21;;;;;;;;;1.75;1.75;;;;;0.62;68.77;101047.91;5042839;28;46168;-82
2021/12/23 04:18:50;;;;;;;;;4.25;4.25;;;;;0.52;68.78;101032.81;5043018;28;45416;-82
2021/12/23 04:21:15;;;;;;;;;3.00;3.00;;;;;0.63;68.71;101037.72;5042648;28;45397;-82
2021/12/23 04:23:41;;;;;;;;;3.00;3.00;;;;;0.88;68.15;101068.91;5043005;28;45377;-82
2021/12/23 04:26:09;;;;;;;;;2.00;2.00;;;;;0.78;68.84;101054.72;5042722;28;46024;-82
2021/12/23 04:28:44;;;;;;;;;2.00;2.00;;;;;0.57;68.46;100993.84;5042946;28;45340;-83
2021/12/23 04:31:10;;;;;;;;;4.50;4.50;;;;;1.11;69.19;101082.09;5043033;28;45200;-83
2021/12/23 04:33:35;;;;;;;;;2.50;2.25;;;;;1.28;68.63;101108.59;5061285;28;45310;-82
2021/12/23 04:36:01;;;;;;;;;2.00;2.00;;;;;0.38;68.51;100945.84;5062694;28;45526;-82
2021/12/23 04:38:26;;;;;;;;;8.50;3.25;;;;;0.92;68.39;101034.94;5063099;28;45324;-81
2021/12/23 04:40:52;;;;;;;;;3.50;3.50;;;;;1.21;68.57;101073.19;5064484;28;45442;-82
2021/12/23 04:43:17;;;;;;;;;1.25;1.25;;;;;0.89;68.09;101019.44;5063206;28;45424;-82
2021/12/23 04:45:42;;;;;;;;;3.00;3.00;;;;;0.89;68.57;101024.56;5062772;28;45416;-82
2021/12/23 04:48:08;;;;;;;;;6.75;5.00;;;;;1.22;68.77;101059.53;5062416;28;45396;-82
2021/12/23 04:50:33;;;;;;;;;1.75;1.50;;;;;0.72;68.63;100973.28;5060881;28;45372;-81
2021/12/23 04:52:59;;;;;;;;;2.25;1.00;;;;;1.29;68.34;101076.16;5062624;28;45432;-81
2021/12/23 04:55:24;;;;;;;;;2.25;1.75;;;;;1.33;67.91;101067.81;5062053;28;46436;-81
2021/12/23 04:57:50;;;;;;;;;3.50;3.50;;;;;1.29;68.37;101092.44;5062197;28;45653;-82
2021/12/23 05:00:21;;;;;;;;;3.25;2.50;;;;;1.45;68.42;101109.50;5062314;28;45370;-81
2021/12/23 05:02:47;;;;;;;;;4.25;4.25;;;;;1.29;68.76;101063.34;5062464;28;45425;-81
2021/12/23 05:05:14;;;;;;;;;6.00;3.50;;;;;1.01;68.88;101022.63;5061818;28;45271;-82
2021/12/23 05:07:40;;;;;;;;;1.25;1.25;;;;;0.98;68.31;101017.31;5062345;28;45451;-82
2021/12/23 05:10:09;;;;;;;;;2.75;2.50;;;;;0.78;68.17;100988.09;5062369;28;45483;-82
2021/12/23 05:12:43;;;;;;;;;1.25;1.25;;;;;0.59;68.53;100953.81;5063259;28;45474;-82
2021/12/23 05:15:11;;;;;;;;;4.50;2.75;;;;;0.74;68.50;100963.09;5062174;28;45274;-82
2021/12/23 05:17:36;;;;;;;;;2.25;2.25;;;;;1.32;68.30;101053.22;5062948;28;45362;-82
2021/12/23 05:20:04;;;;;;;;;2.25;2.00;;;;;1.05;68.71;101018.53;5062635;28;45453;-82
2021/12/23 05:22:30;;;;;;;;;6.50;4.50;;;;;0.85;68.43;100955.94;5062285;28;45349;-82
2021/12/23 05:24:55;;;;;;;;;1.50;1.50;;;;;1.51;68.28;101058.47;5061790;28;45811;-82
2021/12/23 05:27:27;;;;;;;;;1.25;1.25;;;;;1.32;68.69;101031.00;5062141;28;45251;-83
2021/12/23 05:29:52;;;;;;;;;6.00;2.75;;;;;1.49;68.58;101054.97;5062304;28;45384;-83
2021/12/23 05:32:18;;;;;;;;;5.75;2.75;;;;;1.05;68.61;100969.81;5054466;28;45358;-83
2021/12/23 05:34:44;;;;;;;;;4.00;3.00;;;;;0.94;68.87;100955.53;5041834;28;45485;-81
2021/12/23 05:37:09;;;;;;;;;3.00;3.00;;;;;1.32;68.59;101030.16;5041888;28;45319;-82
2021/12/23 05:39:35;;;;;;;;;7.00;2.00;;;;;1.10;68.27;100976.06;5042037;28;45375;-82
2021/12/23 05:42:00;;;;;;;;;2.00;2.00;;;;;1.51;67.88;101049.94;5042543;28;45389;-82
2021/12/23 05:44:26;;;;;;;;;1.00;1.00;;;;;1.37;68.67;101028.69;5039823;28;46181;-81
2021/12/23 05:46:52;;;;;;;;;3.25;3.25;;;;;0.72;68.33;100914.31;5041785;28;45286;-81
2021/12/23 05:49:17;;;;;;;;;3.25;3.25;;;;;1.46;68.36;101018.00;5041540;28;45154;-80
2021/12/23 05:51:42;;;;;;;;;2.00;2.00;;;;;1.59;68.58;101046.03;5040719;28;45301;-81
2021/12/23 05:54:08;;;;;;;;;2.00;2.00;;;;;1.23;68.19;100981.81;5044435;28;45329;-81
2021/12/23 05:56:33;;;;;;;;;1.75;1.75;;;;;1.22;68.67;100988.63;5044834;28;45259;-82
2021/12/23 05:58:59;;;;;;;;;3.50;2.25;;;;;1.64;68.85;101038.59;5033729;28;45209;-82
2021/12/23 06:01:24;;;;;;;;;4.00;2.25;;;;;1.24;68.51;100986.13;5033639;28;46218;-82
2021/12/23 06:03:50;;;;;;;;;4.25;3.00;;;;;1.67;68.12;101041.31;5034718;28;46290;-82
2021/12/23 06:06:16;;;;;;;;;1.50;1.50;;;;;1.02;68.10;100938.88;5031436;28;45175;-83
2021/12/23 06:08:41;;;;;;;;;2.00;2.00;;;;;1.67;68.72;101032.72;5033324;28;45228;-82
2021/12/23 06:11:07;;;;;;;;;4.75;1.00;;;;;1.66;68.55;101029.28;5042632;28;45453;-82
2021/12/23 06:13:33;;;;;;;;;5.75;3.00;;;;;0.92;68.55;100911.03;5035974;28;46160;-82
2021/12/23 06:15:58;;;;;;;;;3.50;3.50;;;;;1.28;68.56;100969.22;5033099;28;45413;-82
2021/12/23 06:18:24;;;;;;;;;2.50;2.50;;;;;1.77;69.01;101047.78;5036882;28;45452;-80
2021/12/23 06:20:49;;;;;;;;;2.50;2.50;;;;;1.63;68.05;101027.44;5034854;28;45258;-82
2021/12/23 06:23:14;;;;;;;;;4.00;2.00;;;;;1.80;68.46;101042.78;5037548;28;46983;-82
2021/12/23 06:25:40;;;;;;;;;2.50;2.50;;;;;1.18;68.34;100934.53;5033172;28;45393;-83
2021/12/23 06:28:05;;;;;;;;;2.00;2.00;;;;;1.28;68.13;100951.28;5031646;28;45558;-83
2021/12/23 06:30:31;;;;;;;;;2.00;2.00;;;;;1.75;68.70;101027.16;5026187;28;45268;-82
2021/12/23 06:32:56;;;;;;;;;3.50;3.00;;;;;1.53;68.67;100981.56;5043104;28;46614;-82
2021/12/23 06:35:27;;;;;;;;;5.50;4.25;;;;;1.84;68.46;101031.84;5031929;28;45569;-83
2021/12/23 06:37:53;;;;;;;;;2.00;2.00;;;;;1.54;68.76;100980.78;5034375;28;45493;-82
2021/12/23 06:40:20;;;;;;;;;5.00;2.75;;;;;1.46;68.02;100965.00;5034952;28;45537;-82
2021/12/23 06:42:46;;;;;;;;;10.50;7.00;;;;;2.03;68.22;101053.31;5038046;28;46486;-82
2021/12/23 06:45:12;;;;;;;;;6.25;5.00;;;;;2.03;68.00;101038.78;5036577;28;45279;-82
2021/12/23 06:47:38;;;;;;;;;2.50;2.50;;;;;1.85;68.01;101000.28;5032842;28;45354;-82
2021/12/23 06:50:06;;;;;;;;;6.00;4.00;;;;;1.62;68.01;100953.81;5034278;28;45607;-82
2021/12/23 06:52:31;;;;;;;;;3.75;2.00;;;;;1.27;67.39;100896.53;5032579;28;45389;-82
2021/12/23 06:54:57;;;;;;;;;4.25;2.25;;;;;2.03;67.77;101018.22;5035225;28;45492;-82
2021/12/23 06:57:25;;;;;;;;;4.75;3.00;;;;;1.79;67.70;100974.28;5038056;28;45444;-82
2021/12/23 06:59:50;;;;;;;;;2.75;1.25;;;;;1.98;68.03;101001.72;5032778;28;45468;-82
2021/12/23 07:02:16;;;;;;;;;4.25;3.25;;;;;2.02;68.02;101013.91;5033979;28;45537;-82
2021/12/23 07:04:43;;;;;;;;;2.00;1.75;;;;;1.77;68.14;100963.94;5042084;28;45530;-82
2021/12/23 07:07:10;;;;;;;;;6.00;2.50;;;;;2.24;67.94;101030.34;5041046;28;45315;-78
2021/12/23 07:09:42;;;;;;;;;5.00;3.50;;;;;1.87;67.36;100974.66;5041377;28;45420;-80
2021/12/23 07:12:10;;;;;;;;;2.75;2.25;;;;;2.44;68.09;101052.63;5028549;28;47992;-80
2021/12/23 07:14:37;;;;;;;;;3.25;3.25;;;;;2.46;67.92;101058.75;5034656;28;45449;-80
2021/12/23 07:17:04;;;;;;;;;1.00;1.00;;;;;2.00;67.53;100991.53;5040364;28;44683;-80
2021/12/23 07:19:29;;;;;;;;;3.25;1.75;;;;;2.00;67.37;100976.13;5030746;28;45360;-79
2021/12/23 07:21:55;;;;;;;;;4.50;3.50;;;;;1.35;68.12;100861.84;5040389;28;46628;-80
2021/12/23 07:24:21;;;;;;;;;9.00;3.50;;;;;2.54;67.59;101057.41;5033915;28;44913;-79
2021/12/23 07:26:46;;;;;;;;;4.00;3.00;;;;;2.31;67.23;101021.25;5026279;28;45500;-77
2021/12/23 07:29:12;;;;;;;;;2.75;2.75;;;;;2.60;67.47;101057.69;5038693;28;45422;-78
2021/12/23 07:31:38;;;;;;;;;9.00;2.75;;;;;2.07;67.98;100985.88;5040460;28;46007;-80
2021/12/23 07:34:03;;;;;;;;;4.75;4.00;;;;;1.86;67.12;100960.03;5042782;28;45400;-80
2021/12/23 07:36:29;;;;;;;;;3.25;3.25;;;;;2.21;67.42;101004.53;5036036;28;45564;-80
2021/12/23 07:38:56;;;;;;;;;13.00;6.00;;;;;2.62;67.04;101073.19;5040169;28;45327;-79
2021/12/23 07:41:21;;;;;;;;;6.00;6.00;;;;;2.20;67.54;100986.47;5037544;28;46331;-80
2021/12/23 07:43:58;;;;;;;;;2.25;1.75;;;;;2.66;67.30;101063.13;5023565;28;45642;-78
2021/12/23 07:46:28;;;;;;;;;3.00;3.00;;;;;2.50;67.46;101038.41;5022214;28;45371;-80
2021/12/23 07:48:55;;;;;;;;;2.00;2.00;;;;;2.71;67.54;101065.91;5031264;28;45213;-81
2021/12/23 07:51:21;;;;;;;;;3.00;3.00;;;;;2.76;67.07;101076.41;5031113;28;46614;-82
2021/12/23 07:53:47;;;;;;;;;3.50;2.50;;;;;2.70;67.82;101056.47;5037351;28;45856;-79
2021/12/23 07:56:12;;;;;;;;;2.25;1.50;;;;;2.74;66.93;101057.47;5031598;28;45244;-81
2021/12/23 07:58:38;;;;;;;;;1.00;1.00;;;;;2.85;67.62;101063.97;5043594;28;45444;-81
2021/12/23 08:01:03;;;;;;;;;1.75;1.75;;;;;2.87;66.82;101069.19;5037226;28;45419;-81
2021/12/23 08:03:29;;;;;;;;;4.50;3.50;;;;;2.90;67.18;101061.59;5031687;28;45455;-79
2021/12/23 08:05:54;;;;;;;;;1.75;1.75;;;;;2.45;66.97;100985.03;5041250;28;45311;-82
2021/12/23 08:08:20;;;;;;;;;8.00;3.25;;;;;2.66;67.43;101015.97;5037876;28;45318;-81
2021/12/23 08:10:46;;;;;;;;;3.00;1.00;;;;;2.38;67.72;100965.88;5020907;28;47025;-80
2021/12/23 08:13:11;;;;;;;;;2.50;2.50;;;;;2.44;67.32;100968.72;5032426;28;45264;-81
2021/12/23 08:15:37;;;;;;;;;4.00;2.75;;;;;2.31;67.60;100953.56;5039820;28;45260;-81
2021/12/23 08:18:03;;;;;;;;;4.00;2.25;;;;;2.89;66.98;101035.03;5022994;28;45600;-81
2021/12/23 08:20:29;;;;;;;;;4.00;4.00;;;;;3.08;66.97;101058.09;5027586;28;45518;-81
2021/12/23 08:22:54;;;;;;;;;2.50;2.25;;;;;2.46;66.71;100954.28;5040231;28;45466;-80
2021/12/23 08:25:22;;;;;;;;;2.25;2.25;;;;;2.66;66.73;100964.53;5046017;28;45448;-82
2021/12/23 08:27:47;;;;;;;;;4.00;4.00;;;;;3.02;66.93;101031.31;5052697;28;45434;-81
2021/12/23 08:30:14;;;;;;;;;1.50;1.00;;;;;3.22;66.75;101046.72;5062996;28;45933;-85
2021/12/23 08:32:40;;;;;;;;;5.25;3.75;;;;;3.26;66.88;101051.22;5053255;28;44879;-81
2021/12/23 08:35:06;;;;;;;;;4.00;3.00;;;;;3.06;67.20;101010.88;5039412;28;45495;-80
2021/12/23 08:37:32;;;;;;;;;5.25;3.00;;;;;2.82;66.97;100958.38;5059296;28;45249;-80
2021/12/23 08:39:57;;;;;;;;;5.50;3.00;;;;;3.02;66.87;100997.88;5042573;28;46063;-79
2021/12/23 08:42:23;;;;;;;;;3.00;2.75;;;;;2.99;66.78;100984.88;5037955;28;45522;-81
2021/12/23 08:44:48;;;;;;;;;3.75;2.00;;;;;3.27;66.89;101037.53;5025927;28;45555;-81
2021/12/23 08:47:14;;;;;;;;;3.50;3.50;;;;;3.34;67.12;101035.22;5034623;28;45523;-84
2021/12/23 08:49:44;;;;;;;;;2.50;2.50;;;;;3.28;66.75;101013.53;5033025;28;47035;-83
2021/12/23 08:52:11;;;;;;;;;1.50;1.25;;;;;3.41;66.50;101027.84;5035339;28;45446;-82
2021/12/23 08:54:37;;;;;;;;;5.25;2.00;;;;;3.16;67.07;100977.00;5036941;28;45384;-81
2021/12/23 08:57:04;;;;;;;;;4.50;3.25;;;;;3.46;66.44;101020.28;5062322;28;45210;-85
2021/12/23 08:59:30;;;;;;;;;3.00;1.00;;;;;3.60;67.26;101035.44;5047534;28;46238;-86
2021/12/23 09:01:56;;;;;;;;;2.75;2.00;;;;;3.44;66.70;100996.19;5041480;28;45576;-83
2021/12/23 09:04:22;;;;;;;;;3.00;3.00;;;;;3.49;67.26;100993.81;5043220;28;45688;-85
2021/12/23 09:06:48;;;;;;;;;1.50;1.50;;;;;3.08;66.48;100914.94;5026092;28;45027;-83
2021/12/23 09:09:13;;;;;;;;;3.50;3.50;;;;;3.40;66.96;100960.84;5034438;28;45368;-85
2021/12/23 09:11:39;;;;;;;;;3.50;3.00;;;;;3.78;67.17;101032.75;5030022;28;45539;-83
2021/12/23 09:14:06;;;;;;;;;4.50;3.25;;;;;3.85;66.59;101045.06;5032045;28;45490;-83
2021/12/23 09:16:32;;;;;;;;;7.75;5.75;;;;;2.92;66.93;100885.13;5029942;28;45351;-82
2021/12/23 09:19:00;;;;;;;;;2.00;2.00;;;;;3.31;66.79;100942.44;5033422;28;46610;-82
2021/12/23 09:21:25;;;;;;;;;3.75;3.75;;;;;3.80;67.34;101018.25;5033176;28;45260;-81
2021/12/23 09:23:51;;;;;;;;;2.75;2.75;;;;;4.02;66.94;101048.31;5034665;28;45239;-82
2021/12/23 09:26:16;;;;;;;;;1.00;1.00;;;;;3.54;67.54;100951.09;5036786;28;45435;-82
2021/12/23 09:28:57;;;;;;;;;0.00;0.00;;;;;4.02;66.56;101024.28;5038280;28;46461;-80
2021/12/23 09:34:09;;;;;;;;;1.00;1.00;;;;;4.24;67.58;101032.84;5039760;28;45164;-83
2021/12/23 09:36:38;;;;;;;;;4.00;2.50;;;;;4.29;67.76;101029.63;5039184;28;45224;-84
2021/12/23 09:39:06;;;;;;;;;2.00;2.00;;;;;4.16;67.51;101005.09;5032987;28;45354;-82
2021/12/23 09:41:33;;;;;;;;;2.00;2.00;;;;;4.05;67.53;100984.03;5035514;28;45570;-82
2021/12/23 09:44:00;;;;;;;;;3.25;3.00;;;;;4.17;67.12;101013.69;5042559;28;45518;-80
2021/12/23 09:46:26;;;;;;;;;2.25;2.25;;;;;4.24;67.58;101005.38;5054299;28;45611;-82
2021/12/23 09:48:52;;;;;;;;;7.00;3.25;;;;;3.84;67.29;100936.81;5036587;28;45687;-78
2021/12/23 09:51:20;;;;;;;;;7.00;2.00;;;;;3.52;68.06;100875.53;5032772;28;46327;-77
2021/12/23 09:53:54;;;;;;;;;1.00;1.00;;;;;4.47;67.58;101028.59;5046223;28;45458;-80
2021/12/23 09:56:20;;;;;;;;;2.75;2.00;;;;;4.53;67.84;101027.94;5041780;28;45336;-80
2021/12/23 09:58:46;;;;;;;;;2.50;2.00;;;;;4.57;67.81;101030.69;5066557;28;48104;-82
2021/12/23 10:01:11;;;;;;;;;3.50;3.00;;;;;4.57;68.44;101019.53;5054374;28;45312;-83
2021/12/23 10:03:38;;;;;;;;;3.75;1.00;;;;;4.64;68.27;101018.03;5053135;28;45281;-81
2021/12/23 10:06:05;;;;;;;;;2.00;1.00;;;;;4.20;68.29;100940.78;5063694;28;45574;-82
2021/12/23 10:08:34;;;;;;;;;1.00;1.00;;;;;3.68;68.24;100844.41;5048875;28;46989;-84
2021/12/23 10:11:09;;;;;;;;;4.00;1.25;;;;;4.73;67.98;101015.81;5071059;28;45407;-86
2021/12/23 10:38:14;;;;;;;;;2.25;1.50;;;;;4.85;68.89;100935.41;5059299;28;45456;-83
2021/12/23 10:40:44;;;;;;;;;4.25;3.50;;;;;4.96;70.36;100938.34;5038811;28;45339;-81
2021/12/23 10:43:22;;;;;;;;;2.50;2.25;;;;;5.02;69.55;100943.72;5043954;28;45516;-80
2021/12/23 10:45:57;;;;;;;;;3.00;2.75;;;;;5.30;69.53;100960.16;5041637;28;45434;-79
2021/12/23 10:48:29;;;;;;;;;0.75;0.50;;;;;5.13;69.65;100925.16;5043327;28;45370;-80
2021/12/23 10:51:03;;;;;;;;;3.00;3.00;;;;;5.24;68.91;100928.13;5053426;28;45442;-79
2021/12/23 10:53:50;;;;;;;;;5.75;1.75;;;;;5.43;69.48;100966.59;5052636;28;45492;-79
2021/12/23 10:59:18;;;;;;;;;2.00;2.00;;;;;5.50;69.83;100964.25;5047869;28;45281;-78
2021/12/23 11:02:17;;;;;;;;;1.75;1.75;;;;;5.56;69.30;100957.59;5050477;28;46178;-80
2021/12/23 11:05:24;;;;;;;;;4.75;3.50;;;;;5.57;69.48;100948.13;5035141;28;47027;-79
2021/12/23 11:41:18;;;;;;;;;2.25;2.00;;;;;6.14;71.73;100924.91;5058813;28;45335;-80
2021/12/23 11:43:52;;;;;;;;;0.75;0.75;;;;;5.91;71.76;100889.75;5048402;28;45419;-80
2021/12/23 11:46:21;;;;;;;;;1.75;1.75;;;;;6.24;72.34;100932.13;5032436;28;46032;-82
2021/12/23 11:48:51;;;;;;;;;3.00;0.75;;;;;6.28;71.98;100933.97;5049319;28;45544;-81
2021/12/23 11:51:28;;;;;;;;;1.25;1.00;;;;;6.26;72.57;100917.53;5057185;28;45404;-80
2021/12/23 11:53:53;;;;;;;;;1.75;1.00;;;;;5.50;72.48;100799.84;5039820;28;45363;-84
2021/12/23 11:56:24;;;;;;;;;3.75;2.00;;;;;5.44;72.14;100779.91;5039944;28;47580;-84
2021/12/23 11:58:51;;;;;;;;;1.00;1.00;;;;;6.26;73.08;100899.44;5036340;28;45541;-79
2021/12/23 12:01:26;;;;;;;;;1.00;1.00;;;;;5.51;72.42;100768.03;5039239;28;45536;-83
2021/12/23 12:04:04;;;;;;;;;1.00;1.00;;;;;6.43;72.88;100915.44;5060743;28;46256;-80
2021/12/23 12:06:31;;;;;;;;;5.75;4.50;;;;;6.45;72.56;100912.88;5036912;28;45350;-81
2021/12/23 12:09:18;;;;;;;;;1.75;1.00;;;;;6.17;72.14;100855.22;5036795;28;45373;-78
2021/12/23 12:12:17;;;;;;;;;1.50;0.00;;;;;6.52;72.97;100904.47;5037113;28;46052;-80
2021/12/23 12:14:45;;;;;;;;;6.25;3.00;;;;;6.07;72.56;100821.34;5035646;28;45466;-79
2021/12/23 12:17:23;;;;;;;;;0.50;0.50;;;;;6.62;72.75;100902.16;5050741;28;46188;-83
2021/12/23 12:20:14;;;;;;;;;3.00;3.00;;;;;6.57;72.96;100881.31;5044108;28;45346;-79
2021/12/23 12:22:51;;;;;;;;;3.50;2.00;;;;;6.46;72.62;100843.09;5042701;28;45374;-80
2021/12/23 12:25:23;;;;;;;;;8.50;2.00;;;;;6.72;73.24;100881.75;5044977;28;45673;-80
2021/12/23 12:27:50;;;;;;;;;5.00;3.75;;;;;6.82;73.54;100882.88;5044269;28;46169;-80
2021/12/23 12:30:18;;;;;;;;;3.50;3.25;;;;;6.42;73.54;100784.38;5046851;28;45570;-80
2021/12/23 12:32:44;;;;;;;;;2.00;2.00;;;;;6.74;72.79;100806.72;5040511;28;45513;-77
2021/12/23 12:35:19;;;;;;;;;0.75;0.00;;;;;7.23;72.60;100873.53;5035098;28;45548;-81
2021/12/23 12:37:46;;;;;;;;;1.75;1.00;;;;;7.29;72.56;100858.13;5035440;28;46138;-79
2021/12/23 12:40:12;;;;;;;;;1.00;1.00;;;;;7.16;72.01;100831.06;5055873;28;45638;-81
2021/12/23 12:42:43;;;;;;;;;1.25;1.25;;;;;7.39;71.92;100859.25;5034060;28;45338;-82
2021/12/23 12:45:14;;;;;;;;;1.00;1.00;;;;;7.44;71.93;100856.75;5039310;28;45321;-84